Vernon, Connecticut
Current Conditions -  °F | °C
As of 11:53 PM on Saturday 20 Dec 2014 (Local Time) from KHFD Reporting Station
Overcast Overcast  
Wind Chill: 28°   Ceiling: 2000
Heat Index: 33°   Visibility: 10mi
Dew Point: 27°   Wind: 6mph
Humidity: 78%   Direction: NA
Pressure: 30.28"   Gusts: NA
Location:  41.837°N, 72.4608°W
Report Text: KHFD 210453Z AUTO VRB05KT 10SM OVC020 01/M03 A3028 RMK AO2 SLP253 T00061028 400061033
Loading
Personal Weather Stations






























Interactive Weather Map New forecast layout! Learn more

10-Day Weather Forecast

Advertisements
Track Severe Weather on mobile